createdAt,value
2022-10-16T00:01:20.395Z,9.97
2022-10-16T00:03:48.286Z,8.33
2022-10-16T00:06:17.062Z,8.70
2022-10-16T00:08:43.940Z,8.63
2022-10-16T00:11:16.406Z,9.93
2022-10-16T00:13:44.624Z,8.53
2022-10-16T00:16:12.210Z,10.67
2022-10-16T00:18:39.785Z,11.13
2022-10-16T00:21:09.752Z,10.03
2022-10-16T00:23:37.239Z,9.80
2022-10-16T00:26:10.848Z,8.87
2022-10-16T00:28:37.711Z,12.57
2022-10-16T00:31:07.065Z,7.57
2022-10-16T00:33:34.426Z,11.57
2022-10-16T00:36:03.075Z,9.20
2022-10-16T00:38:29.954Z,9.20
2022-10-16T00:40:57.123Z,10.17
2022-10-16T00:43:49.092Z,13.20
2022-10-16T00:46:21.338Z,10.53
2022-10-16T00:49:00.100Z,8.80
2022-10-16T00:51:32.634Z,9.67
2022-10-16T00:54:00.007Z,10.90
2022-10-16T00:56:27.267Z,11.00
2022-10-16T00:58:54.080Z,12.17
2022-10-16T01:01:21.006Z,10.93
2022-10-16T01:03:47.975Z,21.83
2022-10-16T01:09:34.142Z,10.17
2022-10-16T01:12:25.371Z,9.50
2022-10-16T01:15:11.669Z,9.93
2022-10-16T01:17:56.851Z,12.00
2022-10-16T01:20:27.692Z,8.67
2022-10-16T01:23:18.537Z,9.50
2022-10-16T01:26:10.160Z,15.10
2022-10-16T01:28:52.615Z,12.80
2022-10-16T01:31:23.349Z,13.60
2022-10-16T01:34:01.727Z,16.30
2022-10-16T01:36:36.910Z,14.60
2022-10-16T01:39:04.495Z,9.00
2022-10-16T01:41:49.696Z,11.53
2022-10-16T01:44:22.668Z,8.57
2022-10-16T01:46:52.787Z,9.10
2022-10-16T01:49:22.031Z,10.30
2022-10-16T01:51:53.289Z,10.23
2022-10-16T01:54:21.308Z,11.47
2022-10-16T01:56:50.873Z,9.97
2022-10-16T01:59:22.224Z,10.57
2022-10-16T02:01:53.798Z,10.73
2022-10-16T02:04:30.297Z,10.33
2022-10-16T02:06:57.376Z,9.37
2022-10-16T02:09:24.250Z,8.67
2022-10-16T02:11:53.792Z,9.43
2022-10-16T02:14:23.075Z,8.17
2022-10-16T02:16:49.818Z,9.30
2022-10-16T02:19:20.506Z,9.57
2022-10-16T02:21:57.741Z,10.07
2022-10-16T02:24:42.557Z,14.27
2022-10-16T02:27:34.536Z,10.40
2022-10-16T02:30:11.401Z,9.80
2022-10-16T02:32:43.035Z,10.13
2022-10-16T02:35:10.882Z,8.27
2022-10-16T02:37:39.853Z,10.67
2022-10-16T02:40:08.248Z,9.33
2022-10-16T02:42:40.540Z,9.07
2022-10-16T02:45:08.784Z,7.73
2022-10-16T02:47:35.517Z,10.07
2022-10-16T02:50:02.422Z,11.57
2022-10-16T02:52:29.274Z,9.60
2022-10-16T02:54:56.288Z,9.60
2022-10-16T02:57:23.263Z,9.43
2022-10-16T02:59:50.190Z,16.30
2022-10-16T03:02:16.989Z,11.57
2022-10-16T03:04:43.748Z,7.90
2022-10-16T03:07:10.439Z,8.63
2022-10-16T03:09:37.183Z,9.50
2022-10-16T03:12:04.264Z,8.07
2022-10-16T03:14:30.966Z,12.60
2022-10-16T03:16:57.684Z,8.30
2022-10-16T03:19:25.425Z,9.67
2022-10-16T03:21:52.131Z,8.47
2022-10-16T03:24:18.930Z,6.60
2022-10-16T03:26:45.639Z,8.00
2022-10-16T03:29:12.514Z,10.27
2022-10-16T03:31:39.195Z,10.43
2022-10-16T03:34:05.928Z,6.73
2022-10-16T03:36:32.786Z,8.30
2022-10-16T03:38:59.526Z,9.83
2022-10-16T03:41:26.265Z,7.10
2022-10-16T03:43:53.049Z,8.17
2022-10-16T03:46:19.758Z,6.77
2022-10-16T03:48:46.690Z,7.63
2022-10-16T03:51:13.423Z,8.27
2022-10-16T03:53:40.163Z,10.57
2022-10-16T03:56:07.143Z,9.93
2022-10-16T03:58:34.161Z,7.10
2022-10-16T04:01:00.940Z,9.07
2022-10-16T04:03:27.799Z,8.10
2022-10-16T04:05:54.570Z,5.80
2022-10-16T04:08:21.469Z,10.70
2022-10-16T04:10:48.494Z,12.23
2022-10-16T04:13:15.367Z,7.20
2022-10-16T04:15:42.173Z,8.73
2022-10-16T04:18:09.115Z,8.70
2022-10-16T04:20:35.871Z,6.33
2022-10-16T04:23:02.665Z,7.53
2022-10-16T04:25:29.591Z,8.17
2022-10-16T04:27:56.526Z,8.73
2022-10-16T04:30:24.188Z,14.30
2022-10-16T04:32:51.994Z,10.33
2022-10-16T04:35:20.167Z,8.67
2022-10-16T04:37:47.032Z,8.00
2022-10-16T04:40:14.375Z,6.10
2022-10-16T04:42:41.710Z,6.60
2022-10-16T04:45:12.003Z,6.20
2022-10-16T04:47:41.642Z,5.87
2022-10-16T04:50:08.803Z,5.63
2022-10-16T04:55:08.042Z,5.97
2022-10-16T04:57:34.846Z,7.57
2022-10-16T05:00:01.831Z,8.50
2022-10-16T05:02:28.613Z,7.57
2022-10-16T05:04:55.430Z,7.67
2022-10-16T05:07:22.142Z,6.07
2022-10-16T05:09:48.840Z,6.30
2022-10-16T05:12:15.587Z,8.60
2022-10-16T05:14:42.330Z,6.07
2022-10-16T05:17:09.113Z,6.00
2022-10-16T05:19:35.959Z,6.53
2022-10-16T05:22:02.829Z,6.10
2022-10-16T05:24:29.629Z,7.70
2022-10-16T05:26:56.385Z,5.87
2022-10-16T05:29:23.500Z,4.40
2022-10-16T05:31:54.003Z,4.73
2022-10-16T05:34:21.792Z,5.30
2022-10-16T05:36:48.638Z,4.70
2022-10-16T05:39:16.289Z,5.63
2022-10-16T05:41:43.708Z,5.53
2022-10-16T05:44:10.945Z,6.00
2022-10-16T05:46:37.686Z,4.50
2022-10-16T05:49:04.400Z,5.73
2022-10-16T05:51:31.150Z,5.50
2022-10-16T05:53:57.864Z,5.00
2022-10-16T05:56:24.644Z,3.83
2022-10-16T05:58:51.357Z,4.10
2022-10-16T06:01:21.693Z,3.87
2022-10-16T06:03:48.550Z,6.93
2022-10-16T06:06:17.659Z,4.33
2022-10-16T06:08:46.438Z,4.57
2022-10-16T06:11:19.348Z,4.40
2022-10-16T06:13:46.988Z,4.30
2022-10-16T06:16:14.396Z,4.43
2022-10-16T06:18:41.522Z,7.07
2022-10-16T06:21:13.703Z,3.70
2022-10-16T06:23:40.553Z,3.00
2022-10-16T06:26:12.650Z,3.93
2022-10-16T06:28:40.149Z,13.30
2022-10-16T06:31:08.754Z,4.87
2022-10-16T06:33:36.793Z,3.07
2022-10-16T06:36:07.965Z,3.57
2022-10-16T06:38:34.926Z,3.30
2022-10-16T06:41:01.774Z,2.70
2022-10-16T06:43:33.868Z,3.07
2022-10-16T06:46:01.550Z,4.00
2022-10-16T06:48:28.862Z,3.63
2022-10-16T06:51:00.043Z,6.83
2022-10-16T06:53:29.587Z,3.00
2022-10-16T06:55:56.378Z,3.63
2022-10-16T06:58:23.801Z,4.03
2022-10-16T07:00:56.300Z,8.40
2022-10-16T07:03:23.036Z,4.17
2022-10-16T07:05:49.767Z,4.80
2022-10-16T07:08:16.525Z,3.10
2022-10-16T07:10:43.262Z,3.97
2022-10-16T07:13:10.027Z,3.47
2022-10-16T07:15:36.764Z,4.10
2022-10-16T07:18:03.517Z,3.47
2022-10-16T07:20:30.216Z,3.97
2022-10-16T07:22:56.910Z,2.33
2022-10-16T07:25:23.849Z,3.10
2022-10-16T07:27:50.615Z,3.40
2022-10-16T07:30:17.444Z,3.20
2022-10-16T07:32:44.186Z,3.30
2022-10-16T07:35:10.922Z,2.87
2022-10-16T07:37:37.683Z,4.90
2022-10-16T07:40:04.957Z,4.33
2022-10-16T07:42:31.679Z,5.53
2022-10-16T07:44:58.419Z,5.27
2022-10-16T07:47:25.548Z,2.63
2022-10-16T07:49:52.492Z,3.20
2022-10-16T07:52:19.194Z,3.47
2022-10-16T07:54:45.921Z,3.83
2022-10-16T07:57:12.996Z,6.00
2022-10-16T07:59:39.715Z,2.83
2022-10-16T08:02:06.528Z,4.27
2022-10-16T08:04:33.229Z,2.80
2022-10-16T08:07:00.022Z,2.90
2022-10-16T08:09:26.763Z,3.17
2022-10-16T08:11:53.711Z,2.93
2022-10-16T08:14:20.460Z,3.37
2022-10-16T08:16:47.201Z,2.80
2022-10-16T08:19:14.105Z,6.17
2022-10-16T08:21:40.838Z,2.33
2022-10-16T08:24:07.593Z,5.27
2022-10-16T08:26:34.320Z,3.97
2022-10-16T08:29:01.077Z,4.30
2022-10-16T08:31:28.343Z,5.70
2022-10-16T08:33:55.241Z,4.50
2022-10-16T08:36:22.030Z,3.67
2022-10-16T08:38:50.556Z,6.13
2022-10-16T08:41:54.557Z,2.97
2022-10-16T08:44:42.976Z,2.70
2022-10-16T08:47:19.660Z,2.80
2022-10-16T08:49:57.899Z,4.40
2022-10-16T08:52:30.240Z,6.00
2022-10-16T08:54:57.539Z,3.83
2022-10-16T08:57:27.816Z,5.93
2022-10-16T08:59:56.295Z,3.30
2022-10-16T09:02:33.551Z,5.17
2022-10-16T09:05:11.200Z,4.57
2022-10-16T09:08:05.702Z,6.70
2022-10-16T09:10:43.706Z,4.03
2022-10-16T09:13:18.144Z,4.17
2022-10-16T09:16:25.491Z,4.47
2022-10-16T09:19:21.267Z,5.83
2022-10-16T09:21:51.912Z,3.77
2022-10-16T09:24:25.516Z,8.43
2022-10-16T09:26:54.125Z,9.40
2022-10-16T09:29:22.685Z,2.37
2022-10-16T09:31:49.428Z,4.10
2022-10-16T09:34:29.812Z,6.03
2022-10-16T09:36:58.465Z,5.33
2022-10-16T09:39:25.517Z,4.23
2022-10-16T09:41:53.257Z,2.37
2022-10-16T09:44:28.964Z,6.90
2022-10-16T09:47:18.987Z,6.13
2022-10-16T09:50:03.311Z,3.50
2022-10-16T09:52:31.461Z,3.63
2022-10-16T09:55:04.137Z,2.43
2022-10-16T09:57:31.745Z,5.57
2022-10-16T09:59:59.641Z,5.23
2022-10-16T10:02:39.014Z,4.97
2022-10-16T10:05:15.104Z,5.80
2022-10-16T10:07:46.883Z,5.93
2022-10-16T10:10:31.051Z,2.87
2022-10-16T10:12:58.528Z,2.23
2022-10-16T10:15:27.733Z,4.23
2022-10-16T10:17:55.687Z,5.67
2022-10-16T10:20:35.368Z,2.53
2022-10-16T10:23:15.522Z,4.60
2022-10-16T10:26:04.086Z,4.97
2022-10-16T10:28:30.787Z,4.87
2022-10-16T10:31:25.319Z,3.10
2022-10-16T10:34:19.345Z,5.73
2022-10-16T10:36:58.505Z,3.47
2022-10-16T10:39:43.694Z,8.23
2022-10-16T10:42:20.308Z,4.03
2022-10-16T10:44:57.954Z,3.23
2022-10-16T10:47:42.810Z,3.50
2022-10-16T10:50:27.397Z,2.10
2022-10-16T10:53:19.827Z,3.93
2022-10-16T10:55:49.336Z,4.83
2022-10-16T10:58:36.048Z,5.40
2022-10-16T11:01:14.357Z,3.90
2022-10-16T11:04:11.352Z,6.07
2022-10-16T11:06:49.543Z,4.03
2022-10-16T11:09:29.281Z,3.17
2022-10-16T11:12:33.545Z,4.87
2022-10-16T11:15:17.034Z,1.90
2022-10-16T11:17:58.619Z,3.97
2022-10-16T11:20:33.613Z,2.37
2022-10-16T11:23:19.516Z,4.10
2022-10-16T11:25:48.292Z,3.90
2022-10-16T11:28:27.886Z,3.40
2022-10-16T11:31:12.366Z,2.10
2022-10-16T11:34:12.984Z,4.30
2022-10-16T11:36:48.849Z,4.57
2022-10-16T11:39:32.458Z,4.70
2022-10-16T11:42:41.903Z,11.17
2022-10-16T11:45:44.159Z,6.23
2022-10-16T11:48:31.369Z,2.70
2022-10-16T11:51:06.181Z,4.83
2022-10-16T11:54:05.372Z,2.67
2022-10-16T11:56:37.461Z,3.17
2022-10-16T11:59:32.685Z,3.57
2022-10-16T12:02:41.026Z,3.10
2022-10-16T12:05:40.902Z,3.00
2022-10-16T12:08:17.847Z,3.07
2022-10-16T12:10:47.267Z,2.90
2022-10-16T12:13:39.302Z,6.73
2022-10-16T12:16:14.896Z,2.87
2022-10-16T12:18:46.414Z,2.20
2022-10-16T12:21:19.976Z,5.77
2022-10-16T12:23:53.956Z,2.73
2022-10-16T12:26:28.527Z,2.27
2022-10-16T12:28:56.643Z,4.27
2022-10-16T12:31:25.182Z,1.20
2022-10-16T12:34:03.665Z,4.90
2022-10-16T12:36:35.378Z,4.83
2022-10-16T12:39:02.671Z,6.73
2022-10-16T12:41:40.963Z,3.00
2022-10-16T12:44:27.906Z,3.67
2022-10-16T12:46:54.634Z,6.20
2022-10-16T12:49:33.959Z,2.83
2022-10-16T12:52:00.669Z,2.93
2022-10-16T12:54:45.331Z,3.67
2022-10-16T12:57:59.458Z,5.87
2022-10-16T13:00:46.776Z,5.13
2022-10-16T13:03:51.136Z,3.17
2022-10-16T13:06:33.719Z,4.83
2022-10-16T13:09:22.163Z,7.23
2022-10-16T13:12:24.288Z,5.80
2022-10-16T13:15:31.049Z,5.43
2022-10-16T13:18:22.327Z,2.90
2022-10-16T13:20:51.777Z,3.77
2022-10-16T13:23:49.522Z,3.97
2022-10-16T13:26:40.335Z,2.63
2022-10-16T13:29:07.320Z,3.13
2022-10-16T13:31:35.220Z,3.70
2022-10-16T13:34:02.493Z,2.83
2022-10-16T13:36:32.023Z,5.37
2022-10-16T13:39:13.856Z,2.73
2022-10-16T13:41:40.832Z,4.17
2022-10-16T13:44:16.933Z,2.83
2022-10-16T13:46:43.665Z,3.97
2022-10-16T13:49:16.937Z,5.13
2022-10-16T13:51:55.863Z,4.07
2022-10-16T13:54:23.324Z,2.60
2022-10-16T13:57:02.814Z,2.37
2022-10-16T13:59:39.592Z,2.47
2022-10-16T14:02:18.377Z,4.50
2022-10-16T14:04:45.572Z,5.63
2022-10-16T14:07:21.524Z,2.17
2022-10-16T14:09:51.618Z,4.77
2022-10-16T14:12:18.708Z,3.13
2022-10-16T14:14:49.629Z,7.37
2022-10-16T14:17:31.973Z,3.20
2022-10-16T14:20:04.089Z,4.43
2022-10-16T14:22:38.079Z,6.13
2022-10-16T14:25:19.943Z,4.97
2022-10-16T14:27:58.033Z,2.33
2022-10-16T14:30:26.137Z,7.73
2022-10-16T14:32:59.280Z,2.00
2022-10-16T14:35:38.168Z,6.07
2022-10-16T14:38:07.325Z,4.17
2022-10-16T14:40:37.975Z,3.60
2022-10-16T14:43:05.875Z,3.00
2022-10-16T14:45:35.600Z,3.57
2022-10-16T14:48:07.296Z,10.07
2022-10-16T14:50:34.021Z,2.93
2022-10-16T14:53:00.997Z,3.33
2022-10-16T14:55:27.910Z,2.60
2022-10-16T14:57:58.235Z,2.63
2022-10-16T15:00:27.913Z,2.07
2022-10-16T15:02:55.712Z,4.73
2022-10-16T15:05:25.701Z,2.80
2022-10-16T15:07:55.777Z,4.03
2022-10-16T15:10:24.332Z,5.40
2022-10-16T15:12:51.107Z,4.97
2022-10-16T15:15:25.019Z,6.23
2022-10-16T15:18:01.540Z,8.53
2022-10-16T15:20:35.580Z,4.87
2022-10-16T15:23:05.035Z,4.73
2022-10-16T15:25:53.697Z,5.90
2022-10-16T15:28:21.911Z,4.27
2022-10-16T15:30:51.512Z,5.83
2022-10-16T15:33:29.701Z,5.53
2022-10-16T15:35:56.521Z,3.43
2022-10-16T15:38:24.020Z,7.50
2022-10-16T15:40:51.188Z,4.97
2022-10-16T15:43:19.285Z,7.97
2022-10-16T15:46:06.059Z,15.50
2022-10-16T15:48:34.322Z,22.10
2022-10-16T15:51:05.351Z,39.60
2022-10-16T15:53:32.128Z,36.00
2022-10-16T15:55:58.836Z,38.37
2022-10-16T15:58:25.621Z,32.73
2022-10-16T16:00:56.925Z,31.00
2022-10-16T16:03:23.883Z,11.60
2022-10-16T16:05:50.653Z,13.90
2022-10-16T16:08:17.747Z,12.83
2022-10-16T16:10:44.474Z,7.10
2022-10-16T16:13:11.803Z,5.90
2022-10-16T16:15:41.755Z,6.50
2022-10-16T16:18:10.681Z,9.77
2022-10-16T16:20:37.703Z,6.27
2022-10-16T16:23:04.442Z,7.03
2022-10-16T16:25:31.640Z,10.93
2022-10-16T16:27:58.422Z,6.90
2022-10-16T16:30:28.189Z,7.23
2022-10-16T16:32:55.308Z,8.37
2022-10-16T16:35:24.785Z,8.73
2022-10-16T16:37:51.974Z,7.97
2022-10-16T16:40:19.029Z,8.50
2022-10-16T16:42:57.780Z,5.63
2022-10-16T16:45:29.404Z,4.70
2022-10-16T16:47:56.253Z,5.87
2022-10-16T16:50:22.952Z,5.73
2022-10-16T16:52:49.694Z,5.50
2022-10-16T16:55:16.481Z,8.47
2022-10-16T16:57:43.186Z,5.20
2022-10-16T17:00:10.839Z,8.87
2022-10-16T17:02:37.621Z,10.23
2022-10-16T17:05:04.450Z,7.20
2022-10-16T17:07:33.887Z,8.23
2022-10-16T17:10:01.851Z,10.67
2022-10-16T17:12:31.154Z,10.10
2022-10-16T17:14:57.860Z,8.10
2022-10-16T17:17:25.045Z,6.87
2022-10-16T17:19:52.481Z,9.43
2022-10-16T17:22:20.187Z,6.20
2022-10-16T17:24:52.060Z,5.80
2022-10-16T17:27:19.770Z,6.43
2022-10-16T17:29:50.462Z,8.50
2022-10-16T17:32:17.203Z,5.37
2022-10-16T17:34:43.893Z,11.00
2022-10-16T17:37:14.291Z,9.33
2022-10-16T17:39:43.923Z,8.30
2022-10-16T17:42:10.661Z,8.43
2022-10-16T17:44:37.377Z,10.97
2022-10-16T17:47:04.141Z,6.90
2022-10-16T17:49:30.851Z,6.53
2022-10-16T17:51:57.613Z,10.57
2022-10-16T17:54:24.401Z,7.63
2022-10-16T17:56:51.143Z,6.77
2022-10-16T17:59:17.977Z,8.03
2022-10-16T18:01:46.470Z,8.63
2022-10-16T18:04:16.206Z,9.00
2022-10-16T18:06:44.213Z,7.20
2022-10-16T18:09:14.170Z,10.70
2022-10-16T18:11:41.045Z,7.63
2022-10-16T18:14:07.755Z,8.00
2022-10-16T18:16:36.711Z,8.67
2022-10-16T18:19:04.200Z,7.07
2022-10-16T18:21:31.287Z,8.50
2022-10-16T18:23:59.929Z,7.53
2022-10-16T18:26:27.373Z,8.27
2022-10-16T18:28:56.189Z,9.53
2022-10-16T18:31:23.686Z,11.23
2022-10-16T18:33:51.363Z,9.17
2022-10-16T18:36:30.831Z,9.67
2022-10-16T18:39:01.272Z,11.30
2022-10-16T18:41:57.792Z,8.40
2022-10-16T18:44:32.743Z,8.70
2022-10-16T18:46:59.527Z,11.33
2022-10-16T18:49:26.425Z,14.63
2022-10-16T18:51:56.874Z,9.00
2022-10-16T18:54:24.770Z,13.17
2022-10-16T18:56:53.057Z,8.10
2022-10-16T18:59:19.780Z,7.40
2022-10-16T19:01:48.662Z,10.80
2022-10-16T19:04:17.188Z,6.00
2022-10-16T19:06:46.857Z,7.40
2022-10-16T19:09:15.407Z,10.47
2022-10-16T19:11:42.830Z,7.47
2022-10-16T19:14:13.428Z,10.63
2022-10-16T19:16:42.873Z,6.63
2022-10-16T19:19:14.086Z,6.57
2022-10-16T19:21:41.235Z,7.27
2022-10-16T19:24:09.148Z,6.80
2022-10-16T19:26:38.162Z,7.37
2022-10-16T19:29:09.195Z,8.87
2022-10-16T19:31:35.989Z,8.60
2022-10-16T19:34:04.424Z,7.03
2022-10-16T19:36:33.792Z,10.73
2022-10-16T19:39:05.275Z,10.03
2022-10-16T19:41:32.728Z,7.93
2022-10-16T19:44:04.648Z,10.80
2022-10-16T19:46:32.054Z,11.90
2022-10-16T19:49:01.416Z,11.40
2022-10-16T19:51:29.229Z,12.63
2022-10-16T19:53:58.433Z,10.77
2022-10-16T19:56:27.656Z,10.70
2022-10-16T19:58:56.000Z,9.23
2022-10-16T20:01:24.346Z,14.27
2022-10-16T20:03:51.208Z,9.30
2022-10-16T20:06:19.876Z,11.77
2022-10-16T20:08:49.852Z,9.60
2022-10-16T20:11:21.968Z,8.27
2022-10-16T20:13:49.591Z,8.43
2022-10-16T20:16:19.113Z,11.32
2022-10-16T20:18:47.606Z,9.93
2022-10-16T20:21:34.301Z,8.70
2022-10-16T20:24:05.225Z,6.80
2022-10-16T20:26:32.246Z,9.03
2022-10-16T20:28:59.160Z,6.27
2022-10-16T20:31:28.364Z,10.20
2022-10-16T20:33:56.795Z,13.73
2022-10-16T20:36:25.861Z,10.53
2022-10-16T20:38:53.272Z,10.33
2022-10-16T20:41:20.800Z,7.70
2022-10-16T20:43:49.191Z,7.83
2022-10-16T20:46:22.235Z,9.13
2022-10-16T20:48:50.061Z,9.30
2022-10-16T20:51:25.605Z,10.87
2022-10-16T20:54:03.896Z,10.77
2022-10-16T20:56:33.357Z,9.30
2022-10-16T20:59:00.258Z,13.07
2022-10-16T21:01:29.354Z,10.03
2022-10-16T21:03:58.683Z,11.10
2022-10-16T21:06:26.151Z,12.50
2022-10-16T21:08:53.368Z,11.33
2022-10-16T21:11:21.699Z,10.30
2022-10-16T21:13:48.990Z,8.90
2022-10-16T21:16:16.109Z,9.87
2022-10-16T21:18:44.781Z,11.80
2022-10-16T21:21:19.536Z,9.40
2022-10-16T21:23:46.876Z,12.87
2022-10-16T21:26:13.652Z,10.70
2022-10-16T21:28:40.467Z,9.20
2022-10-16T21:31:22.355Z,9.47
2022-10-16T21:33:50.578Z,10.00
2022-10-16T21:36:23.010Z,11.23
2022-10-16T21:38:50.108Z,9.80
2022-10-16T21:41:25.695Z,11.17
2022-10-16T21:43:53.696Z,11.87
2022-10-16T21:46:22.144Z,9.83
2022-10-16T21:48:49.070Z,11.50
2022-10-16T21:51:16.049Z,10.10
2022-10-16T21:53:42.798Z,10.20
2022-10-16T21:56:14.662Z,9.63
2022-10-16T21:58:41.787Z,10.27
2022-10-16T22:01:11.389Z,9.60
2022-10-16T22:03:38.248Z,10.37
2022-10-16T22:06:06.958Z,10.03
2022-10-16T22:08:34.878Z,10.50
2022-10-16T22:11:10.702Z,10.60
2022-10-16T22:13:37.882Z,11.00
2022-10-16T22:16:05.160Z,11.20
2022-10-16T22:18:32.458Z,11.43
2022-10-16T22:20:59.722Z,11.30
2022-10-16T22:23:26.811Z,13.60
2022-10-16T22:26:06.487Z,10.93
2022-10-16T22:28:33.766Z,13.30
2022-10-16T22:31:10.081Z,12.07
2022-10-16T22:33:37.152Z,10.87
2022-10-16T22:36:06.500Z,10.53
2022-10-16T22:38:34.488Z,11.83
2022-10-16T22:41:05.751Z,11.07
2022-10-16T22:43:35.894Z,11.70
2022-10-16T22:46:07.696Z,11.13
2022-10-16T22:48:35.295Z,11.53
2022-10-16T22:51:02.440Z,11.60
2022-10-16T22:53:29.198Z,11.57
2022-10-16T22:55:56.190Z,11.37
2022-10-16T22:58:23.286Z,12.47
2022-10-16T23:00:50.606Z,12.43
2022-10-16T23:03:17.566Z,13.03
2022-10-16T23:05:44.770Z,12.47
2022-10-16T23:08:12.328Z,12.97
2022-10-16T23:10:44.145Z,12.00
2022-10-16T23:13:11.408Z,12.50
2022-10-16T23:15:42.840Z,13.93
2022-10-16T23:18:09.845Z,13.27
2022-10-16T23:20:39.775Z,12.03
2022-10-16T23:23:06.861Z,12.10
2022-10-16T23:25:33.621Z,12.50
2022-10-16T23:28:00.300Z,13.53
2022-10-16T23:30:27.062Z,13.83
2022-10-16T23:32:53.740Z,11.83
2022-10-16T23:35:20.470Z,12.97
2022-10-16T23:37:47.177Z,12.30
2022-10-16T23:40:13.895Z,12.73
2022-10-16T23:42:40.585Z,12.60
2022-10-16T23:45:07.560Z,14.10
2022-10-16T23:47:34.265Z,12.67
2022-10-16T23:50:01.019Z,12.67
2022-10-16T23:52:27.715Z,12.73
2022-10-16T23:54:54.402Z,14.80
2022-10-16T23:57:21.152Z,13.47
2022-10-16T23:59:47.859Z,13.23
